createdAt,value
2018-04-26T00:02:13.864Z,21.70
2018-04-26T00:04:41.525Z,21.80
2018-04-26T00:07:09.189Z,21.70
2018-04-26T00:09:36.759Z,21.70
2018-04-26T00:12:05.228Z,21.70
2018-04-26T00:14:32.893Z,21.70
2018-04-26T00:17:00.565Z,21.70
2018-04-26T00:19:28.945Z,21.70
2018-04-26T00:21:57.283Z,21.70
2018-04-26T00:24:25.028Z,21.70
2018-04-26T00:26:52.592Z,21.80
2018-04-26T00:29:20.199Z,21.70
2018-04-26T00:31:48.987Z,21.80
2018-04-26T00:34:16.553Z,21.70
2018-04-26T00:36:44.136Z,21.70
2018-04-26T00:39:12.494Z,21.70
2018-04-26T00:41:40.157Z,21.70
2018-04-26T00:44:07.728Z,21.70
2018-04-26T00:46:36.201Z,21.70
2018-04-26T00:49:03.767Z,21.70
2018-04-26T00:51:43.922Z,21.70
2018-04-26T00:54:11.579Z,21.70
2018-04-26T00:56:39.149Z,21.70
2018-04-26T00:59:07.481Z,21.70
2018-04-26T01:01:35.062Z,21.70
2018-04-26T01:04:02.629Z,21.60
2018-04-26T01:06:30.964Z,21.70
2018-04-26T01:08:58.526Z,21.70
2018-04-26T01:11:26.160Z,21.70
2018-04-26T01:13:54.527Z,21.70
2018-04-26T01:16:22.199Z,21.70
2018-04-26T01:18:50.536Z,21.70
2018-04-26T01:21:19.459Z,21.70
2018-04-26T01:23:47.122Z,21.60
2018-04-26T01:26:14.788Z,21.60
2018-04-26T01:28:42.356Z,21.60
2018-04-26T01:31:10.688Z,21.60
2018-04-26T01:33:38.291Z,21.60
2018-04-26T01:36:05.937Z,21.70
2018-04-26T01:38:33.619Z,21.60
2018-04-26T01:41:01.271Z,21.60
2018-04-26T01:43:28.839Z,21.60
2018-04-26T01:45:56.500Z,21.60
2018-04-26T01:48:24.065Z,21.60
2018-04-26T01:50:51.630Z,21.60
2018-04-26T01:53:20.007Z,21.60
2018-04-26T01:55:47.997Z,21.60
2018-04-26T01:58:16.363Z,21.60
2018-04-26T02:00:44.740Z,21.60
2018-04-26T02:03:13.143Z,21.60
2018-04-26T02:05:40.781Z,21.60
2018-04-26T02:08:09.120Z,21.60
2018-04-26T02:10:36.719Z,21.60
2018-04-26T02:13:04.323Z,21.60
2018-04-26T02:15:31.939Z,21.60
2018-04-26T02:17:59.503Z,21.50
2018-04-26T02:20:27.095Z,21.50
2018-04-26T02:22:54.674Z,21.60
2018-04-26T02:25:22.300Z,21.60
2018-04-26T02:27:51.809Z,21.60
2018-04-26T02:30:20.140Z,21.60
2018-04-26T02:32:48.738Z,21.60
2018-04-26T02:35:16.325Z,21.60
2018-04-26T02:37:44.667Z,21.50
2018-04-26T02:40:12.268Z,21.50
2018-04-26T02:42:40.639Z,21.60
2018-04-26T02:45:08.206Z,21.50
2018-04-26T02:47:35.863Z,21.50
2018-04-26T02:50:03.430Z,21.50
2018-04-26T02:52:31.768Z,21.50
2018-04-26T02:54:59.339Z,21.50
2018-04-26T02:57:26.930Z,21.50
2018-04-26T02:59:54.600Z,21.50
2018-04-26T03:02:22.990Z,21.50
2018-04-26T03:04:51.332Z,21.50
2018-04-26T03:07:19.676Z,21.50
2018-04-26T03:09:47.254Z,21.50
2018-04-26T03:12:16.658Z,21.50
2018-04-26T03:14:44.253Z,21.50
2018-04-26T03:17:11.832Z,21.50
2018-04-26T03:19:40.204Z,21.40
2018-04-26T03:22:08.588Z,21.50
2018-04-26T03:24:36.959Z,21.50
2018-04-26T03:27:06.344Z,21.50
2018-04-26T03:29:34.961Z,21.40
2018-04-26T03:32:03.348Z,21.50
2018-04-26T03:34:30.920Z,21.50
2018-04-26T03:36:58.488Z,21.40
2018-04-26T03:39:26.107Z,21.40
2018-04-26T03:41:53.790Z,21.50
2018-04-26T03:44:22.129Z,21.50
2018-04-26T03:46:49.691Z,21.50
2018-04-26T03:49:17.910Z,21.40
2018-04-26T03:51:46.248Z,21.40
2018-04-26T03:54:13.833Z,21.40
2018-04-26T03:56:42.166Z,21.40
2018-04-26T03:59:09.774Z,21.40
2018-04-26T04:01:50.036Z,21.40
2018-04-26T04:04:30.131Z,21.40
2018-04-26T04:06:57.703Z,21.30
2018-04-26T04:09:25.348Z,21.30
2018-04-26T04:11:52.923Z,21.40
2018-04-26T04:14:20.834Z,21.40
2018-04-26T04:16:48.833Z,21.40
2018-04-26T04:19:16.402Z,21.40
2018-04-26T04:21:44.491Z,21.40
2018-04-26T04:24:12.349Z,21.40
2018-04-26T04:26:39.966Z,21.40
2018-04-26T04:29:08.372Z,21.40
2018-04-26T04:31:36.052Z,21.30
2018-04-26T04:34:03.640Z,21.40
2018-04-26T04:36:31.244Z,21.40
2018-04-26T04:38:59.583Z,21.30
2018-04-26T04:41:27.157Z,21.40
2018-04-26T04:43:54.736Z,21.40
2018-04-26T04:46:22.298Z,21.30
2018-04-26T04:48:49.871Z,21.40
2018-04-26T04:51:20.951Z,21.40
2018-04-26T04:53:48.520Z,21.40
2018-04-26T04:56:16.087Z,21.40
2018-04-26T04:58:43.697Z,21.40
2018-04-26T05:01:12.086Z,21.40
2018-04-26T05:03:40.428Z,21.30
2018-04-26T05:06:08.000Z,21.30
2018-04-26T05:08:35.580Z,21.30
2018-04-26T05:11:03.924Z,21.40
2018-04-26T05:13:31.516Z,21.30
2018-04-26T05:15:59.864Z,21.30
2018-04-26T05:18:27.431Z,21.30
2018-04-26T05:20:55.016Z,21.30
2018-04-26T05:23:23.400Z,21.40
2018-04-26T05:25:51.774Z,21.40
2018-04-26T05:28:20.148Z,21.40
2018-04-26T05:30:48.351Z,21.30
2018-04-26T05:33:15.987Z,21.40
2018-04-26T05:35:43.571Z,21.40
2018-04-26T05:38:11.913Z,21.40
2018-04-26T05:40:39.659Z,21.40
2018-04-26T05:43:07.949Z,21.40
2018-04-26T05:45:35.525Z,21.40
2018-04-26T05:48:03.864Z,21.50
2018-04-26T05:50:31.436Z,21.50
2018-04-26T05:52:59.037Z,21.50
2018-04-26T05:55:28.537Z,21.50
2018-04-26T05:57:56.119Z,21.50
2018-04-26T06:00:24.455Z,21.50
2018-04-26T06:02:52.032Z,21.50
2018-04-26T06:05:19.612Z,21.50
2018-04-26T06:07:48.007Z,21.60
2018-04-26T06:10:15.576Z,21.60
2018-04-26T06:12:43.225Z,21.60
2018-04-26T06:15:11.603Z,21.60
2018-04-26T06:17:39.969Z,21.60
2018-04-26T06:20:07.534Z,21.60
2018-04-26T06:22:35.195Z,21.70
2018-04-26T06:25:02.862Z,21.70
2018-04-26T06:27:31.204Z,21.70
2018-04-26T06:29:58.776Z,21.80
2018-04-26T06:32:26.368Z,21.80
2018-04-26T06:34:54.703Z,21.80
2018-04-26T06:37:22.318Z,21.90
2018-04-26T06:39:50.690Z,21.90
2018-04-26T06:42:19.331Z,21.90
2018-04-26T06:44:48.076Z,21.90
2018-04-26T06:47:16.439Z,21.90
2018-04-26T06:49:44.823Z,21.90
2018-04-26T06:52:13.194Z,21.90
2018-04-26T06:54:40.773Z,21.90
2018-04-26T06:57:09.900Z,21.90
2018-04-26T06:59:37.520Z,21.90
2018-04-26T07:02:05.852Z,22.00
2018-04-26T07:04:33.474Z,22.00
2018-04-26T07:07:01.831Z,22.00
2018-04-26T07:09:29.509Z,22.00
2018-04-26T07:11:57.863Z,22.00
2018-04-26T07:14:25.576Z,22.00
2018-04-26T07:16:53.904Z,22.00
2018-04-26T07:19:21.481Z,22.00
2018-04-26T07:21:49.738Z,22.00
2018-04-26T07:24:18.777Z,22.00
2018-04-26T07:26:46.350Z,22.00
2018-04-26T07:29:13.915Z,22.00
2018-04-26T07:31:41.546Z,22.00
2018-04-26T07:34:09.924Z,22.00
2018-04-26T07:36:38.267Z,22.00
2018-04-26T07:39:05.858Z,22.00
2018-04-26T07:41:33.532Z,22.00
2018-04-26T07:44:01.906Z,22.00
2018-04-26T07:46:29.570Z,22.00
2018-04-26T07:48:57.133Z,22.00
2018-04-26T07:51:25.507Z,22.00
2018-04-26T07:53:53.105Z,22.00
2018-04-26T07:56:20.736Z,21.90
2018-04-26T07:58:49.827Z,22.00
2018-04-26T08:01:18.228Z,21.90
2018-04-26T08:03:46.712Z,21.90
2018-04-26T08:06:15.047Z,21.90
2018-04-26T08:08:43.607Z,21.90
2018-04-26T08:11:11.192Z,21.90
2018-04-26T08:13:38.791Z,21.90
2018-04-26T08:16:07.160Z,21.90
2018-04-26T08:18:35.504Z,21.90
2018-04-26T08:21:03.091Z,21.80
2018-04-26T08:23:30.768Z,21.90
2018-04-26T08:25:59.148Z,21.90
2018-04-26T08:28:27.541Z,21.90
2018-04-26T08:30:55.879Z,21.90
2018-04-26T08:33:23.567Z,21.90
2018-04-26T08:35:51.940Z,21.90
2018-04-26T08:38:20.740Z,21.90
2018-04-26T08:40:50.088Z,21.90
2018-04-26T08:43:18.301Z,22.00
2018-04-26T08:45:46.700Z,22.00
2018-04-26T08:48:15.078Z,22.00
2018-04-26T08:50:43.458Z,22.00
2018-04-26T08:53:11.916Z,22.00
2018-04-26T08:55:39.502Z,22.00
2018-04-26T08:58:07.840Z,22.00
2018-04-26T09:00:35.416Z,22.00
2018-04-26T09:03:02.992Z,22.00
2018-04-26T09:05:30.667Z,22.00
2018-04-26T09:07:59.007Z,22.00
2018-04-26T09:10:26.613Z,22.00
2018-04-26T09:12:54.273Z,22.00
2018-04-26T09:15:22.611Z,22.10
2018-04-26T09:17:50.200Z,22.00
2018-04-26T09:20:18.813Z,22.00
2018-04-26T09:22:46.384Z,22.00
2018-04-26T09:25:14.018Z,22.00
2018-04-26T09:27:42.391Z,22.10
2018-04-26T09:30:10.096Z,22.10
2018-04-26T09:32:37.816Z,22.00
2018-04-26T09:35:05.486Z,22.00
2018-04-26T09:37:33.177Z,22.10
2018-04-26T09:40:00.749Z,22.10
2018-04-26T09:42:28.326Z,22.10
2018-04-26T09:44:55.945Z,22.10
2018-04-26T09:47:24.278Z,22.10
2018-04-26T09:49:51.876Z,22.10
2018-04-26T09:52:20.226Z,22.00
2018-04-26T09:54:48.956Z,22.00
2018-04-26T09:57:17.955Z,22.00
2018-04-26T09:59:45.532Z,22.10
2018-04-26T10:02:13.099Z,22.10
2018-04-26T10:04:59.455Z,22.10
2018-04-26T10:07:27.128Z,22.00
2018-04-26T10:09:55.481Z,22.00
2018-04-26T10:12:23.063Z,22.10
2018-04-26T10:14:50.730Z,22.00
2018-04-26T10:17:19.648Z,22.10
2018-04-26T10:19:47.218Z,22.10
2018-04-26T10:22:14.843Z,22.10
2018-04-26T10:24:42.505Z,22.10
2018-04-26T10:27:10.072Z,22.00
2018-04-26T10:29:38.403Z,22.10
2018-04-26T10:32:06.010Z,22.10
2018-04-26T10:34:34.346Z,22.10
2018-04-26T10:37:01.904Z,22.10
2018-04-26T10:39:29.508Z,22.10
2018-04-26T10:41:57.168Z,22.10
2018-04-26T10:44:26.979Z,22.10
2018-04-26T10:46:54.596Z,22.10
2018-04-26T10:49:22.163Z,22.10
2018-04-26T10:51:49.772Z,22.10
2018-04-26T10:54:19.297Z,22.10
2018-04-26T10:56:46.875Z,22.20
2018-04-26T10:59:15.423Z,22.10
2018-04-26T11:01:43.075Z,22.10
2018-04-26T11:04:10.761Z,22.10
2018-04-26T11:06:39.133Z,22.10
2018-04-26T11:09:09.467Z,22.20
2018-04-26T11:11:37.141Z,22.20
2018-04-26T11:14:04.716Z,22.20
2018-04-26T11:16:32.297Z,22.20
2018-04-26T11:18:59.900Z,22.20
2018-04-26T11:21:27.566Z,22.20
2018-04-26T11:23:55.942Z,22.20
2018-04-26T11:26:23.606Z,22.20
2018-04-26T11:28:51.276Z,22.20
2018-04-26T11:31:21.745Z,22.20
2018-04-26T11:33:50.411Z,22.20
2018-04-26T11:36:18.140Z,22.20
2018-04-26T11:38:45.708Z,22.20
2018-04-26T11:41:13.279Z,22.20
2018-04-26T11:43:41.653Z,22.30
2018-04-26T11:46:09.326Z,22.20
2018-04-26T11:48:37.673Z,22.20
2018-04-26T11:51:05.246Z,22.20
2018-04-26T11:53:32.920Z,22.20
2018-04-26T11:56:00.587Z,22.10
2018-04-26T11:58:28.922Z,22.10
2018-04-26T12:00:56.488Z,22.20
2018-04-26T12:03:25.084Z,22.20
2018-04-26T12:05:53.840Z,22.20
2018-04-26T12:08:21.404Z,22.20
2018-04-26T12:10:49.476Z,22.10
2018-04-26T12:13:17.161Z,22.20
2018-04-26T12:15:44.806Z,22.20
2018-04-26T12:18:12.415Z,22.20
2018-04-26T12:20:40.090Z,22.20
2018-04-26T12:23:08.459Z,22.20
2018-04-26T12:25:36.837Z,22.20
2018-04-26T12:28:04.404Z,22.20
2018-04-26T12:30:32.059Z,22.20
2018-04-26T12:32:59.627Z,22.20
2018-04-26T12:35:27.291Z,22.20
2018-04-26T12:37:54.987Z,22.10
2018-04-26T12:40:22.556Z,22.20
2018-04-26T12:42:50.176Z,22.20
2018-04-26T12:45:18.760Z,22.30
2018-04-26T12:47:46.430Z,22.30
2018-04-26T12:50:14.839Z,22.30
2018-04-26T12:52:42.346Z,22.30
2018-04-26T12:55:10.027Z,22.30
2018-04-26T12:57:38.369Z,22.30
2018-04-26T13:00:05.944Z,22.30
2018-04-26T13:02:33.624Z,22.30
2018-04-26T13:05:02.754Z,22.40
2018-04-26T13:07:30.395Z,22.30
2018-04-26T13:09:58.772Z,22.20
2018-04-26T13:12:26.434Z,22.30
2018-04-26T13:14:54.095Z,22.30
2018-04-26T13:17:21.758Z,22.30
2018-04-26T13:19:50.027Z,22.30
2018-04-26T13:22:18.443Z,22.30
2018-04-26T13:24:47.131Z,22.30
2018-04-26T13:27:14.707Z,22.30
2018-04-26T13:29:42.337Z,22.30
2018-04-26T13:32:10.680Z,22.40
2018-04-26T13:34:38.280Z,22.30
2018-04-26T13:37:06.630Z,22.40
2018-04-26T13:39:34.311Z,22.40
2018-04-26T13:42:01.982Z,22.40
2018-04-26T13:44:30.340Z,22.40
2018-04-26T13:46:58.023Z,22.30
2018-04-26T13:49:26.403Z,22.30
2018-04-26T13:51:54.839Z,22.30
2018-04-26T13:54:22.370Z,22.40
2018-04-26T13:56:50.006Z,22.30
2018-04-26T13:59:19.189Z,22.40
2018-04-26T14:01:46.863Z,22.40
2018-04-26T14:04:14.536Z,22.30
2018-04-26T14:06:42.881Z,22.40
2018-04-26T14:09:10.469Z,22.30
2018-04-26T14:11:38.046Z,22.40
2018-04-26T14:14:06.379Z,22.40
2018-04-26T14:16:33.960Z,22.40
2018-04-26T14:19:01.524Z,22.40
2018-04-26T14:21:30.611Z,22.40
2018-04-26T14:23:58.192Z,22.40
2018-04-26T14:26:25.854Z,22.40
2018-04-26T14:28:54.233Z,22.40
2018-04-26T14:31:21.808Z,22.40
2018-04-26T14:33:50.168Z,22.40
2018-04-26T14:36:19.789Z,22.40
2018-04-26T14:38:47.978Z,22.40
2018-04-26T14:41:16.319Z,22.40
2018-04-26T14:43:43.897Z,22.40
2018-04-26T14:46:11.562Z,22.30
2018-04-26T14:48:40.055Z,22.40
2018-04-26T14:51:07.665Z,22.40
2018-04-26T14:53:36.044Z,22.30
2018-04-26T14:56:03.661Z,22.30
2018-04-26T14:58:31.999Z,22.30
2018-04-26T15:00:59.570Z,22.30
2018-04-26T15:03:27.941Z,22.30
2018-04-26T15:05:55.590Z,22.30
2018-04-26T15:08:23.284Z,22.30
2018-04-26T15:10:51.840Z,22.40
2018-04-26T15:13:20.856Z,22.40
2018-04-26T15:15:48.658Z,22.30
2018-04-26T15:18:16.509Z,22.40
2018-04-26T15:20:44.873Z,22.30
2018-04-26T15:23:12.450Z,22.30
2018-04-26T15:25:40.036Z,22.30
2018-04-26T15:28:10.971Z,22.30
2018-04-26T15:30:38.734Z,22.30
2018-04-26T15:33:06.356Z,22.30
2018-04-26T15:35:33.942Z,22.30
2018-04-26T15:38:02.290Z,22.20
2018-04-26T15:40:29.865Z,22.30
2018-04-26T15:42:57.447Z,22.30
2018-04-26T15:45:25.781Z,22.30
2018-04-26T15:47:53.385Z,22.20
2018-04-26T15:53:45.277Z,22.20
2018-04-26T15:56:16.591Z,22.10
2018-04-26T16:02:19.156Z,22.10
2018-04-26T16:04:58.831Z,22.00
2018-04-26T16:07:54.841Z,22.00
2018-04-26T16:10:40.928Z,22.00
2018-04-26T16:13:26.298Z,21.90
2018-04-26T16:16:11.807Z,21.90
2018-04-26T16:18:51.438Z,21.90
2018-04-26T16:21:33.802Z,21.90
2018-04-26T16:24:19.095Z,22.00
2018-04-26T16:27:06.029Z,21.90
2018-04-26T16:29:45.584Z,21.90
2018-04-26T16:32:31.398Z,21.90
2018-04-26T16:35:18.501Z,21.90
2018-04-26T16:38:03.859Z,21.90
2018-04-26T16:40:31.440Z,21.90
2018-04-26T16:47:04.184Z,22.00
2018-04-26T16:49:31.761Z,22.00
2018-04-26T16:51:59.361Z,22.00
2018-04-26T16:54:27.039Z,22.00
2018-04-26T16:56:55.258Z,22.00
2018-04-26T16:59:22.825Z,22.10
2018-04-26T17:01:50.391Z,22.00
2018-04-26T17:04:21.096Z,22.00
2018-04-26T17:06:49.403Z,21.90
2018-04-26T17:09:16.984Z,22.00
2018-04-26T17:11:45.275Z,22.00
2018-04-26T17:14:12.893Z,22.00
2018-04-26T17:16:40.516Z,21.90
2018-04-26T17:19:08.180Z,21.90
2018-04-26T17:21:35.849Z,21.90
2018-04-26T17:24:04.436Z,21.90
2018-04-26T17:26:32.820Z,21.90
2018-04-26T17:29:01.622Z,21.90
2018-04-26T17:31:29.267Z,21.90
2018-04-26T17:33:57.645Z,21.90
2018-04-26T17:36:25.977Z,21.90
2018-04-26T17:38:53.617Z,21.90
2018-04-26T17:41:21.431Z,21.90
2018-04-26T17:43:50.378Z,21.90
2018-04-26T17:46:21.178Z,21.90
2018-04-26T17:48:50.909Z,21.80
2018-04-26T17:51:18.589Z,21.90
2018-04-26T17:53:46.221Z,21.90
2018-04-26T17:56:13.874Z,21.80
2018-04-26T17:58:42.983Z,21.80
2018-04-26T18:01:11.323Z,21.80
2018-04-26T18:03:38.932Z,21.80
2018-04-26T18:06:06.517Z,21.90
2018-04-26T18:08:34.186Z,21.80
2018-04-26T18:11:03.628Z,21.80
2018-04-26T18:13:31.208Z,21.80
2018-04-26T18:15:58.796Z,21.80
2018-04-26T18:18:27.177Z,21.80
2018-04-26T18:20:56.677Z,21.80
2018-04-26T18:23:26.002Z,21.80
2018-04-26T18:25:53.643Z,21.70
2018-04-26T18:28:22.022Z,21.70
2018-04-26T18:30:49.808Z,21.70
2018-04-26T18:33:17.473Z,21.70
2018-04-26T18:35:45.056Z,21.70
2018-04-26T18:38:12.656Z,21.70
2018-04-26T18:40:40.241Z,21.70
2018-04-26T18:43:09.863Z,21.70
2018-04-26T18:45:36.978Z,21.70
2018-04-26T18:48:04.660Z,21.70
2018-04-26T18:50:33.045Z,21.70
2018-04-26T18:53:01.381Z,21.60
2018-04-26T18:55:28.977Z,21.60
2018-04-26T18:57:57.670Z,21.60
2018-04-26T19:00:26.501Z,21.60
2018-04-26T19:02:54.118Z,21.60
2018-04-26T19:05:22.465Z,21.60
2018-04-26T19:07:50.158Z,21.60
2018-04-26T19:10:17.824Z,21.60
2018-04-26T19:12:45.500Z,21.60
2018-04-26T19:15:13.967Z,21.60
2018-04-26T19:17:41.531Z,21.60
2018-04-26T19:20:09.917Z,21.60
2018-04-26T19:22:38.291Z,21.50
2018-04-26T19:25:05.974Z,21.50
2018-04-26T19:27:34.317Z,21.60
2018-04-26T19:30:01.889Z,21.50
2018-04-26T19:32:29.535Z,21.50
2018-04-26T19:34:59.112Z,21.50
2018-04-26T19:37:28.069Z,21.50
2018-04-26T19:39:57.472Z,21.50
2018-04-26T19:42:25.836Z,21.50
2018-04-26T19:44:53.511Z,21.50
2018-04-26T19:47:21.849Z,21.50
2018-04-26T19:49:49.416Z,21.40
2018-04-26T19:52:17.012Z,21.50
2018-04-26T19:54:45.348Z,21.40
2018-04-26T19:57:13.107Z,21.50
2018-04-26T19:59:40.681Z,21.40
2018-04-26T20:02:08.276Z,21.40
2018-04-26T20:04:36.673Z,21.40
2018-04-26T20:07:05.014Z,21.40
2018-04-26T20:09:32.593Z,21.40
2018-04-26T20:12:00.183Z,21.40
2018-04-26T20:14:27.929Z,21.40
2018-04-26T20:16:57.168Z,21.40
2018-04-26T20:19:25.804Z,21.30
2018-04-26T20:21:54.210Z,21.40
2018-04-26T20:24:21.855Z,21.40
2018-04-26T20:26:50.240Z,21.40
2018-04-26T20:29:18.579Z,21.30
2018-04-26T20:31:46.179Z,21.30
2018-04-26T20:34:14.511Z,21.30
2018-04-26T20:36:42.118Z,21.30
2018-04-26T20:39:10.500Z,21.30
2018-04-26T20:41:48.802Z,21.30
2018-04-26T20:44:28.574Z,21.30
2018-04-26T20:46:57.148Z,21.30
2018-04-26T20:49:26.747Z,21.20
2018-04-26T20:51:56.128Z,21.30
2018-04-26T20:54:23.715Z,21.20
2018-04-26T20:56:52.095Z,21.20
2018-04-26T20:59:20.476Z,21.20
2018-04-26T21:01:48.816Z,21.20
2018-04-26T21:04:16.523Z,21.20
2018-04-26T21:06:44.856Z,21.20
2018-04-26T21:09:12.427Z,21.20
2018-04-26T21:11:40.022Z,21.20
2018-04-26T21:14:08.429Z,21.20
2018-04-26T21:16:36.860Z,21.20
2018-04-26T21:19:04.447Z,21.20
2018-04-26T21:21:32.814Z,21.20
2018-04-26T21:24:00.405Z,21.10
2018-04-26T21:26:27.972Z,21.20
2018-04-26T21:28:57.195Z,21.10
2018-04-26T21:31:25.448Z,21.10
2018-04-26T21:33:53.074Z,21.20
2018-04-26T21:36:21.459Z,21.20
2018-04-26T21:38:49.041Z,21.10
2018-04-26T21:41:16.680Z,21.10
2018-04-26T21:43:45.081Z,21.10
2018-04-26T21:46:13.423Z,21.10
2018-04-26T21:48:41.004Z,21.10
2018-04-26T21:51:15.080Z,21.10
2018-04-26T21:53:48.401Z,21.10
2018-04-26T21:56:21.780Z,21.10
2018-04-26T21:58:55.847Z,21.00
2018-04-26T22:01:29.187Z,21.00
2018-04-26T22:04:03.056Z,21.00
2018-04-26T22:06:30.626Z,21.00
2018-04-26T22:08:58.199Z,21.00
2018-04-26T22:11:25.772Z,21.00
2018-04-26T22:13:53.447Z,21.00
2018-04-26T22:16:21.037Z,21.00
2018-04-26T22:18:48.700Z,21.00
2018-04-26T22:21:16.363Z,21.00
2018-04-26T22:23:44.019Z,21.00
2018-04-26T22:26:11.587Z,21.00
2018-04-26T22:28:39.919Z,21.00
2018-04-26T22:31:07.491Z,21.00
2018-04-26T22:33:35.070Z,21.00
2018-04-26T22:36:02.664Z,21.00
2018-04-26T22:38:31.003Z,21.00
2018-04-26T22:40:58.568Z,21.00
2018-04-26T22:43:27.060Z,21.00
2018-04-26T22:45:56.164Z,21.00
2018-04-26T22:48:24.343Z,21.00
2018-04-26T22:50:52.722Z,21.00
2018-04-26T22:53:20.391Z,21.00
2018-04-26T22:55:48.732Z,20.90
2018-04-26T22:58:16.303Z,20.90
2018-04-26T23:00:43.882Z,21.00
2018-04-26T23:03:11.555Z,21.00
2018-04-26T23:05:39.891Z,21.00
2018-04-26T23:08:07.496Z,20.90
2018-04-26T23:10:35.874Z,20.90
2018-04-26T23:13:04.255Z,20.90
2018-04-26T23:15:31.916Z,20.90
2018-04-26T23:17:59.485Z,20.90
2018-04-26T23:20:27.831Z,20.90
2018-04-26T23:22:56.832Z,20.80
2018-04-26T23:25:24.517Z,20.90
2018-04-26T23:27:52.893Z,20.80
2018-04-26T23:30:21.283Z,20.90
2018-04-26T23:32:49.648Z,20.80
2018-04-26T23:35:17.579Z,20.90
2018-04-26T23:37:45.189Z,20.80
2018-04-26T23:40:13.537Z,20.80
2018-04-26T23:42:41.232Z,20.90
2018-04-26T23:45:09.580Z,20.90
2018-04-26T23:47:37.171Z,20.90
2018-04-26T23:50:05.509Z,20.80
2018-04-26T23:52:33.105Z,20.80
2018-04-26T23:55:00.675Z,20.80
2018-04-26T23:57:29.045Z,20.90
2018-04-26T23:59:57.841Z,20.80
